sensor_id;sensor_type;location;lat;lon;timestamp;P1;durP1;ratioP1;P2;durP2;ratioP2
15285;SDS011;7744;52.172;10.668;2023-07-31T00:00:39;3.90;;;2.25;;
15285;SDS011;7744;52.172;10.668;2023-07-31T00:03:05;3.65;;;2.28;;
15285;SDS011;7744;52.172;10.668;2023-07-31T00:05:31;4.18;;;2.30;;
15285;SDS011;7744;52.172;10.668;2023-07-31T00:07:56;4.10;;;2.10;;
15285;SDS011;7744;52.172;10.668;2023-07-31T00:10:22;3.67;;;2.22;;
15285;SDS011;7744;52.172;10.668;2023-07-31T00:12:47;4.22;;;2.22;;
15285;SDS011;7744;52.172;10.668;2023-07-31T00:15:14;4.32;;;2.25;;
15285;SDS011;7744;52.172;10.668;2023-07-31T00:17:39;3.00;;;1.90;;
15285;SDS011;7744;52.172;10.668;2023-07-31T00:20:05;3.80;;;2.17;;
15285;SDS011;7744;52.172;10.668;2023-07-31T00:22:31;3.55;;;2.10;;
15285;SDS011;7744;52.172;10.668;2023-07-31T00:24:57;3.55;;;2.03;;
15285;SDS011;7744;52.172;10.668;2023-07-31T00:27:23;3.03;;;2.20;;
15285;SDS011;7744;52.172;10.668;2023-07-31T00:29:48;4.25;;;2.35;;
15285;SDS011;7744;52.172;10.668;2023-07-31T00:32:14;4.30;;;2.40;;
15285;SDS011;7744;52.172;10.668;2023-07-31T00:34:40;4.88;;;2.20;;
15285;SDS011;7744;52.172;10.668;2023-07-31T00:37:06;3.25;;;2.20;;
15285;SDS011;7744;52.172;10.668;2023-07-31T00:39:33;2.63;;;1.80;;
15285;SDS011;7744;52.172;10.668;2023-07-31T00:41:59;4.38;;;2.00;;
15285;SDS011;7744;52.172;10.668;2023-07-31T00:44:25;3.95;;;2.03;;
15285;SDS011;7744;52.172;10.668;2023-07-31T00:46:50;4.45;;;2.05;;
15285;SDS011;7744;52.172;10.668;2023-07-31T00:49:16;3.67;;;1.70;;
15285;SDS011;7744;52.172;10.668;2023-07-31T00:51:42;5.45;;;2.10;;
15285;SDS011;7744;52.172;10.668;2023-07-31T00:54:07;3.28;;;1.60;;
15285;SDS011;7744;52.172;10.668;2023-07-31T00:56:33;4.57;;;1.88;;
15285;SDS011;7744;52.172;10.668;2023-07-31T00:58:59;3.97;;;1.63;;
15285;SDS011;7744;52.172;10.668;2023-07-31T01:01:24;3.13;;;1.77;;
15285;SDS011;7744;52.172;10.668;2023-07-31T01:03:50;3.88;;;1.65;;
15285;SDS011;7744;52.172;10.668;2023-07-31T01:06:32;3.45;;;1.70;;
15285;SDS011;7744;52.172;10.668;2023-07-31T01:09:14;2.53;;;1.50;;
15285;SDS011;7744;52.172;10.668;2023-07-31T01:11:56;3.20;;;2.03;;
15285;SDS011;7744;52.172;10.668;2023-07-31T01:14:25;4.22;;;1.70;;
15285;SDS011;7744;52.172;10.668;2023-07-31T01:16:51;3.45;;;1.90;;
15285;SDS011;7744;52.172;10.668;2023-07-31T01:19:17;2.92;;;2.00;;
15285;SDS011;7744;52.172;10.668;2023-07-31T01:22:04;4.20;;;1.67;;
15285;SDS011;7744;52.172;10.668;2023-07-31T01:28:03;2.00;;;1.50;;
15285;SDS011;7744;52.172;10.668;2023-07-31T01:30:30;3.13;;;2.00;;
15285;SDS011;7744;52.172;10.668;2023-07-31T01:33:02;2.70;;;1.70;;
15285;SDS011;7744;52.172;10.668;2023-07-31T01:35:32;3.35;;;1.88;;
15285;SDS011;7744;52.172;10.668;2023-07-31T01:38:01;3.58;;;1.70;;
15285;SDS011;7744;52.172;10.668;2023-07-31T01:40:27;3.53;;;1.65;;
15285;SDS011;7744;52.172;10.668;2023-07-31T01:42:52;2.80;;;1.45;;
15285;SDS011;7744;52.172;10.668;2023-07-31T01:45:18;4.13;;;1.67;;
15285;SDS011;7744;52.172;10.668;2023-07-31T01:47:43;3.67;;;1.70;;
15285;SDS011;7744;52.172;10.668;2023-07-31T01:50:09;2.33;;;1.30;;
15285;SDS011;7744;52.172;10.668;2023-07-31T01:52:35;2.78;;;1.30;;
15285;SDS011;7744;52.172;10.668;2023-07-31T01:55:00;2.13;;;1.40;;
15285;SDS011;7744;52.172;10.668;2023-07-31T01:57:26;3.28;;;1.25;;
15285;SDS011;7744;52.172;10.668;2023-07-31T01:59:51;1.98;;;1.00;;
15285;SDS011;7744;52.172;10.668;2023-07-31T02:02:18;2.28;;;1.30;;
15285;SDS011;7744;52.172;10.668;2023-07-31T02:04:44;2.08;;;0.90;;
15285;SDS011;7744;52.172;10.668;2023-07-31T02:07:10;2.38;;;1.30;;
15285;SDS011;7744;52.172;10.668;2023-07-31T02:09:36;3.60;;;1.20;;
15285;SDS011;7744;52.172;10.668;2023-07-31T02:12:01;2.17;;;0.82;;
15285;SDS011;7744;52.172;10.668;2023-07-31T02:14:27;1.25;;;0.80;;
15285;SDS011;7744;52.172;10.668;2023-07-31T02:16:52;2.00;;;0.98;;
15285;SDS011;7744;52.172;10.668;2023-07-31T02:19:18;1.20;;;1.10;;
15285;SDS011;7744;52.172;10.668;2023-07-31T02:21:44;2.25;;;1.00;;
15285;SDS011;7744;52.172;10.668;2023-07-31T02:24:09;1.77;;;0.80;;
15285;SDS011;7744;52.172;10.668;2023-07-31T02:26:35;0.98;;;0.80;;
15285;SDS011;7744;52.172;10.668;2023-07-31T02:29:01;1.77;;;0.90;;
15285;SDS011;7744;52.172;10.668;2023-07-31T02:31:26;0.80;;;0.80;;
15285;SDS011;7744;52.172;10.668;2023-07-31T02:33:52;1.58;;;0.80;;
15285;SDS011;7744;52.172;10.668;2023-07-31T02:36:17;0.98;;;0.80;;
15285;SDS011;7744;52.172;10.668;2023-07-31T02:38:44;3.58;;;1.10;;
15285;SDS011;7744;52.172;10.668;2023-07-31T02:41:09;2.60;;;0.90;;
15285;SDS011;7744;52.172;10.668;2023-07-31T02:43:35;0.73;;;0.73;;
15285;SDS011;7744;52.172;10.668;2023-07-31T02:46:00;0.95;;;0.70;;
15285;SDS011;7744;52.172;10.668;2023-07-31T02:48:26;2.00;;;1.00;;
15285;SDS011;7744;52.172;10.668;2023-07-31T02:50:51;1.48;;;0.95;;
15285;SDS011;7744;52.172;10.668;2023-07-31T02:53:18;2.17;;;1.00;;
15285;SDS011;7744;52.172;10.668;2023-07-31T02:55:44;1.35;;;0.80;;
15285;SDS011;7744;52.172;10.668;2023-07-31T02:58:09;1.13;;;1.00;;
15285;SDS011;7744;52.172;10.668;2023-07-31T03:00:35;1.42;;;0.80;;
15285;SDS011;7744;52.172;10.668;2023-07-31T03:03:00;1.48;;;0.82;;
15285;SDS011;7744;52.172;10.668;2023-07-31T03:05:26;2.08;;;0.82;;
15285;SDS011;7744;52.172;10.668;2023-07-31T03:07:51;1.75;;;0.82;;
15285;SDS011;7744;52.172;10.668;2023-07-31T03:10:17;0.95;;;0.73;;
15285;SDS011;7744;52.172;10.668;2023-07-31T03:12:44;1.05;;;0.63;;
15285;SDS011;7744;52.172;10.668;2023-07-31T03:15:12;2.35;;;0.77;;
15285;SDS011;7744;52.172;10.668;2023-07-31T03:17:38;0.85;;;0.82;;
15285;SDS011;7744;52.172;10.668;2023-07-31T03:20:03;0.82;;;0.65;;
15285;SDS011;7744;52.172;10.668;2023-07-31T03:22:29;0.93;;;0.70;;
15285;SDS011;7744;52.172;10.668;2023-07-31T03:24:54;0.90;;;0.80;;
15285;SDS011;7744;52.172;10.668;2023-07-31T03:27:20;1.08;;;0.60;;
15285;SDS011;7744;52.172;10.668;2023-07-31T03:29:46;1.85;;;1.02;;
15285;SDS011;7744;52.172;10.668;2023-07-31T03:32:11;1.75;;;0.70;;
15285;SDS011;7744;52.172;10.668;2023-07-31T03:34:37;2.00;;;0.60;;
15285;SDS011;7744;52.172;10.668;2023-07-31T03:37:02;0.73;;;0.70;;
15285;SDS011;7744;52.172;10.668;2023-07-31T03:39:30;1.52;;;0.80;;
15285;SDS011;7744;52.172;10.668;2023-07-31T03:41:55;0.93;;;0.80;;
15285;SDS011;7744;52.172;10.668;2023-07-31T03:44:21;2.40;;;0.68;;
15285;SDS011;7744;52.172;10.668;2023-07-31T03:46:46;1.20;;;0.88;;
15285;SDS011;7744;52.172;10.668;2023-07-31T03:49:12;1.08;;;0.98;;
15285;SDS011;7744;52.172;10.668;2023-07-31T03:51:38;1.00;;;0.80;;
15285;SDS011;7744;52.172;10.668;2023-07-31T03:54:03;1.80;;;1.10;;
15285;SDS011;7744;52.172;10.668;2023-07-31T03:56:29;1.88;;;0.90;;
15285;SDS011;7744;52.172;10.668;2023-07-31T03:58:54;1.35;;;0.90;;
15285;SDS011;7744;52.172;10.668;2023-07-31T04:01:20;1.30;;;1.00;;
15285;SDS011;7744;52.172;10.668;2023-07-31T04:03:45;1.23;;;1.02;;
15285;SDS011;7744;52.172;10.668;2023-07-31T04:06:11;1.70;;;1.10;;
15285;SDS011;7744;52.172;10.668;2023-07-31T04:08:37;3.20;;;1.35;;
15285;SDS011;7744;52.172;10.668;2023-07-31T04:11:02;3.08;;;1.25;;
15285;SDS011;7744;52.172;10.668;2023-07-31T04:13:29;1.55;;;1.20;;
15285;SDS011;7744;52.172;10.668;2023-07-31T04:15:55;2.25;;;1.30;;
15285;SDS011;7744;52.172;10.668;2023-07-31T04:18:20;1.58;;;1.10;;
15285;SDS011;7744;52.172;10.668;2023-07-31T04:20:46;1.40;;;1.10;;
15285;SDS011;7744;52.172;10.668;2023-07-31T04:23:12;1.63;;;1.17;;
15285;SDS011;7744;52.172;10.668;2023-07-31T04:25:37;1.65;;;1.30;;
15285;SDS011;7744;52.172;10.668;2023-07-31T04:28:03;2.40;;;1.38;;
15285;SDS011;7744;52.172;10.668;2023-07-31T04:30:29;1.65;;;1.25;;
15285;SDS011;7744;52.172;10.668;2023-07-31T04:32:54;4.78;;;1.70;;
15285;SDS011;7744;52.172;10.668;2023-07-31T04:35:20;1.45;;;1.25;;
15285;SDS011;7744;52.172;10.668;2023-07-31T04:37:45;2.33;;;1.17;;
15285;SDS011;7744;52.172;10.668;2023-07-31T04:40:13;1.92;;;1.30;;
15285;SDS011;7744;52.172;10.668;2023-07-31T04:42:39;2.90;;;1.20;;
15285;SDS011;7744;52.172;10.668;2023-07-31T04:45:05;1.60;;;1.17;;
15285;SDS011;7744;52.172;10.668;2023-07-31T04:47:31;2.40;;;1.20;;
15285;SDS011;7744;52.172;10.668;2023-07-31T04:49:56;2.38;;;0.95;;
15285;SDS011;7744;52.172;10.668;2023-07-31T04:52:22;1.77;;;1.20;;
15285;SDS011;7744;52.172;10.668;2023-07-31T04:54:47;1.60;;;1.10;;
15285;SDS011;7744;52.172;10.668;2023-07-31T04:57:13;3.17;;;1.20;;
15285;SDS011;7744;52.172;10.668;2023-07-31T04:59:39;1.35;;;1.10;;
15285;SDS011;7744;52.172;10.668;2023-07-31T05:02:06;1.73;;;1.10;;
15285;SDS011;7744;52.172;10.668;2023-07-31T05:04:34;1.25;;;1.00;;
15285;SDS011;7744;52.172;10.668;2023-07-31T05:07:00;4.47;;;1.38;;
15285;SDS011;7744;52.172;10.668;2023-07-31T05:09:25;1.10;;;1.00;;
15285;SDS011;7744;52.172;10.668;2023-07-31T05:11:51;2.17;;;1.30;;
15285;SDS011;7744;52.172;10.668;2023-07-31T05:14:16;1.23;;;1.13;;
15285;SDS011;7744;52.172;10.668;2023-07-31T05:16:42;2.42;;;1.00;;
15285;SDS011;7744;52.172;10.668;2023-07-31T05:19:07;2.42;;;1.20;;
15285;SDS011;7744;52.172;10.668;2023-07-31T05:21:33;1.15;;;1.02;;
15285;SDS011;7744;52.172;10.668;2023-07-31T05:24:01;1.83;;;1.33;;
15285;SDS011;7744;52.172;10.668;2023-07-31T05:26:26;1.80;;;1.30;;
15285;SDS011;7744;52.172;10.668;2023-07-31T05:28:52;3.33;;;1.30;;
15285;SDS011;7744;52.172;10.668;2023-07-31T05:31:35;1.98;;;1.00;;
15285;SDS011;7744;52.172;10.668;2023-07-31T05:34:00;1.30;;;1.20;;
15285;SDS011;7744;52.172;10.668;2023-07-31T05:36:26;1.70;;;1.20;;
15285;SDS011;7744;52.172;10.668;2023-07-31T05:38:52;2.10;;;1.15;;
15285;SDS011;7744;52.172;10.668;2023-07-31T05:41:17;1.30;;;1.08;;
15285;SDS011;7744;52.172;10.668;2023-07-31T05:43:43;1.50;;;1.02;;
15285;SDS011;7744;52.172;10.668;2023-07-31T05:46:09;1.27;;;1.15;;
15285;SDS011;7744;52.172;10.668;2023-07-31T05:48:35;1.08;;;0.98;;
15285;SDS011;7744;52.172;10.668;2023-07-31T05:51:00;2.13;;;1.10;;
15285;SDS011;7744;52.172;10.668;2023-07-31T05:53:26;1.63;;;1.10;;
15285;SDS011;7744;52.172;10.668;2023-07-31T05:55:51;1.45;;;1.10;;
15285;SDS011;7744;52.172;10.668;2023-07-31T05:58:17;1.10;;;1.00;;
15285;SDS011;7744;52.172;10.668;2023-07-31T06:00:43;1.35;;;1.10;;
15285;SDS011;7744;52.172;10.668;2023-07-31T06:03:08;0.82;;;0.82;;
15285;SDS011;7744;52.172;10.668;2023-07-31T06:05:34;2.55;;;1.27;;
15285;SDS011;7744;52.172;10.668;2023-07-31T06:08:01;1.65;;;1.40;;
15285;SDS011;7744;52.172;10.668;2023-07-31T06:10:29;1.42;;;1.20;;
15285;SDS011;7744;52.172;10.668;2023-07-31T06:12:59;1.42;;;1.30;;
15285;SDS011;7744;52.172;10.668;2023-07-31T06:15:24;2.33;;;2.00;;
15285;SDS011;7744;52.172;10.668;2023-07-31T06:17:50;1.88;;;1.40;;
15285;SDS011;7744;52.172;10.668;2023-07-31T06:20:15;3.10;;;1.90;;
15285;SDS011;7744;52.172;10.668;2023-07-31T06:22:44;4.47;;;2.40;;
15285;SDS011;7744;52.172;10.668;2023-07-31T06:25:10;2.92;;;2.63;;
15285;SDS011;7744;52.172;10.668;2023-07-31T06:27:36;3.28;;;2.50;;
15285;SDS011;7744;52.172;10.668;2023-07-31T06:30:02;3.38;;;3.00;;
15285;SDS011;7744;52.172;10.668;2023-07-31T06:32:27;3.95;;;3.40;;
15285;SDS011;7744;52.172;10.668;2023-07-31T06:34:53;4.70;;;3.40;;
15285;SDS011;7744;52.172;10.668;2023-07-31T06:37:21;4.35;;;3.40;;
15285;SDS011;7744;52.172;10.668;2023-07-31T06:39:46;4.43;;;3.22;;
15285;SDS011;7744;52.172;10.668;2023-07-31T06:42:12;5.13;;;3.38;;
15285;SDS011;7744;52.172;10.668;2023-07-31T06:44:37;4.57;;;3.47;;
15285;SDS011;7744;52.172;10.668;2023-07-31T06:47:03;4.90;;;3.25;;
15285;SDS011;7744;52.172;10.668;2023-07-31T06:49:29;4.25;;;3.40;;
15285;SDS011;7744;52.172;10.668;2023-07-31T06:51:54;5.65;;;3.58;;
15285;SDS011;7744;52.172;10.668;2023-07-31T06:54:20;3.60;;;3.20;;
15285;SDS011;7744;52.172;10.668;2023-07-31T06:56:46;5.22;;;3.00;;
15285;SDS011;7744;52.172;10.668;2023-07-31T06:59:11;5.72;;;3.70;;
15285;SDS011;7744;52.172;10.668;2023-07-31T07:01:37;3.20;;;2.90;;
15285;SDS011;7744;52.172;10.668;2023-07-31T07:04:02;5.03;;;3.40;;
15285;SDS011;7744;52.172;10.668;2023-07-31T07:06:28;5.07;;;3.42;;
15285;SDS011;7744;52.172;10.668;2023-07-31T07:08:54;3.22;;;2.90;;
15285;SDS011;7744;52.172;10.668;2023-07-31T07:11:19;3.97;;;3.20;;
15285;SDS011;7744;52.172;10.668;2023-07-31T07:13:45;4.10;;;3.35;;
15285;SDS011;7744;52.172;10.668;2023-07-31T07:16:10;3.78;;;3.38;;
15285;SDS011;7744;52.172;10.668;2023-07-31T07:18:36;6.05;;;4.00;;
15285;SDS011;7744;52.172;10.668;2023-07-31T07:21:02;6.40;;;3.95;;
15285;SDS011;7744;52.172;10.668;2023-07-31T07:23:27;5.80;;;4.10;;
15285;SDS011;7744;52.172;10.668;2023-07-31T07:25:53;5.60;;;4.35;;
15285;SDS011;7744;52.172;10.668;2023-07-31T07:28:19;6.25;;;4.53;;
15285;SDS011;7744;52.172;10.668;2023-07-31T07:30:44;6.70;;;4.78;;
15285;SDS011;7744;52.172;10.668;2023-07-31T07:33:10;6.65;;;4.53;;
15285;SDS011;7744;52.172;10.668;2023-07-31T07:35:36;7.57;;;5.15;;
15285;SDS011;7744;52.172;10.668;2023-07-31T07:38:02;12.15;;;5.90;;
15285;SDS011;7744;52.172;10.668;2023-07-31T07:40:28;6.45;;;5.00;;
15285;SDS011;7744;52.172;10.668;2023-07-31T07:42:54;6.20;;;5.35;;
15285;SDS011;7744;52.172;10.668;2023-07-31T07:45:20;8.00;;;4.95;;
15285;SDS011;7744;52.172;10.668;2023-07-31T07:47:45;8.27;;;5.00;;
15285;SDS011;7744;52.172;10.668;2023-07-31T07:50:11;9.68;;;5.43;;
15285;SDS011;7744;52.172;10.668;2023-07-31T07:52:36;8.48;;;5.00;;
15285;SDS011;7744;52.172;10.668;2023-07-31T07:55:03;7.25;;;5.18;;
15285;SDS011;7744;52.172;10.668;2023-07-31T07:57:29;8.77;;;5.50;;
15285;SDS011;7744;52.172;10.668;2023-07-31T07:59:54;8.48;;;5.22;;
15285;SDS011;7744;52.172;10.668;2023-07-31T08:02:21;6.70;;;5.10;;
15285;SDS011;7744;52.172;10.668;2023-07-31T08:04:47;9.02;;;5.15;;
15285;SDS011;7744;52.172;10.668;2023-07-31T08:07:14;6.97;;;4.50;;
15285;SDS011;7744;52.172;10.668;2023-07-31T08:09:40;8.65;;;5.65;;
15285;SDS011;7744;52.172;10.668;2023-07-31T08:12:06;8.10;;;5.20;;
15285;SDS011;7744;52.172;10.668;2023-07-31T08:14:32;9.13;;;5.70;;
15285;SDS011;7744;52.172;10.668;2023-07-31T08:16:57;8.80;;;5.75;;
15285;SDS011;7744;52.172;10.668;2023-07-31T08:19:23;9.05;;;5.25;;
15285;SDS011;7744;52.172;10.668;2023-07-31T08:21:49;8.10;;;4.93;;
15285;SDS011;7744;52.172;10.668;2023-07-31T08:24:15;7.15;;;4.95;;
15285;SDS011;7744;52.172;10.668;2023-07-31T08:26:40;8.23;;;5.40;;
15285;SDS011;7744;52.172;10.668;2023-07-31T08:29:06;7.57;;;4.82;;
15285;SDS011;7744;52.172;10.668;2023-07-31T08:31:31;7.50;;;4.30;;
15285;SDS011;7744;52.172;10.668;2023-07-31T08:33:57;7.43;;;4.70;;
15285;SDS011;7744;52.172;10.668;2023-07-31T08:36:22;7.60;;;4.70;;
15285;SDS011;7744;52.172;10.668;2023-07-31T08:38:48;7.60;;;4.65;;
15285;SDS011;7744;52.172;10.668;2023-07-31T08:41:15;7.97;;;4.47;;
15285;SDS011;7744;52.172;10.668;2023-07-31T08:43:42;6.68;;;4.35;;
15285;SDS011;7744;52.172;10.668;2023-07-31T08:46:10;7.03;;;4.53;;
15285;SDS011;7744;52.172;10.668;2023-07-31T08:48:36;7.63;;;4.50;;
15285;SDS011;7744;52.172;10.668;2023-07-31T08:51:03;6.68;;;5.15;;
15285;SDS011;7744;52.172;10.668;2023-07-31T08:53:29;7.30;;;4.60;;
15285;SDS011;7744;52.172;10.668;2023-07-31T08:55:56;7.88;;;5.38;;
15285;SDS011;7744;52.172;10.668;2023-07-31T08:58:24;7.03;;;5.18;;
15285;SDS011;7744;52.172;10.668;2023-07-31T09:00:51;7.70;;;4.80;;
15285;SDS011;7744;52.172;10.668;2023-07-31T09:03:18;5.72;;;4.60;;
15285;SDS011;7744;52.172;10.668;2023-07-31T09:05:46;7.97;;;4.97;;
15285;SDS011;7744;52.172;10.668;2023-07-31T09:08:12;6.40;;;4.35;;
15285;SDS011;7744;52.172;10.668;2023-07-31T09:10:43;5.15;;;4.20;;
15285;SDS011;7744;52.172;10.668;2023-07-31T09:13:11;8.20;;;4.65;;
15285;SDS011;7744;52.172;10.668;2023-07-31T09:15:41;8.30;;;4.72;;
15285;SDS011;7744;52.172;10.668;2023-07-31T09:18:09;5.70;;;4.20;;
15285;SDS011;7744;52.172;10.668;2023-07-31T09:20:34;5.32;;;3.67;;
15285;SDS011;7744;52.172;10.668;2023-07-31T09:23:08;5.53;;;3.70;;
15285;SDS011;7744;52.172;10.668;2023-07-31T09:25:35;5.82;;;3.58;;
15285;SDS011;7744;52.172;10.668;2023-07-31T09:28:02;5.93;;;3.90;;
15285;SDS011;7744;52.172;10.668;2023-07-31T09:30:30;6.47;;;4.38;;
15285;SDS011;7744;52.172;10.668;2023-07-31T09:33:05;4.75;;;3.38;;
15285;SDS011;7744;52.172;10.668;2023-07-31T09:35:33;9.93;;;4.82;;
15285;SDS011;7744;52.172;10.668;2023-07-31T09:38:02;5.95;;;3.67;;
15285;SDS011;7744;52.172;10.668;2023-07-31T09:40:34;7.32;;;4.05;;
15285;SDS011;7744;52.172;10.668;2023-07-31T09:43:08;5.50;;;3.67;;
15285;SDS011;7744;52.172;10.668;2023-07-31T09:45:37;4.60;;;3.45;;
15285;SDS011;7744;52.172;10.668;2023-07-31T09:48:08;5.63;;;4.03;;
15285;SDS011;7744;52.172;10.668;2023-07-31T09:50:38;5.07;;;3.70;;
15285;SDS011;7744;52.172;10.668;2023-07-31T09:53:06;5.55;;;3.78;;
15285;SDS011;7744;52.172;10.668;2023-07-31T09:55:32;6.65;;;3.88;;
15285;SDS011;7744;52.172;10.668;2023-07-31T09:57:59;5.97;;;4.20;;
15285;SDS011;7744;52.172;10.668;2023-07-31T10:00:28;5.55;;;3.58;;
15285;SDS011;7744;52.172;10.668;2023-07-31T10:02:57;5.03;;;3.13;;
15285;SDS011;7744;52.172;10.668;2023-07-31T10:05:27;5.10;;;3.08;;
15285;SDS011;7744;52.172;10.668;2023-07-31T10:07:58;4.47;;;2.70;;
15285;SDS011;7744;52.172;10.668;2023-07-31T10:10:25;2.80;;;2.58;;
15285;SDS011;7744;52.172;10.668;2023-07-31T10:12:52;3.78;;;2.40;;
15285;SDS011;7744;52.172;10.668;2023-07-31T10:15:19;4.45;;;2.60;;
15285;SDS011;7744;52.172;10.668;2023-07-31T10:17:48;3.03;;;2.55;;
15285;SDS011;7744;52.172;10.668;2023-07-31T10:20:16;3.92;;;2.50;;
15285;SDS011;7744;52.172;10.668;2023-07-31T10:22:42;4.15;;;2.60;;
15285;SDS011;7744;52.172;10.668;2023-07-31T10:25:09;3.80;;;2.22;;
15285;SDS011;7744;52.172;10.668;2023-07-31T10:27:35;3.80;;;2.10;;
15285;SDS011;7744;52.172;10.668;2023-07-31T10:30:03;3.53;;;2.10;;
15285;SDS011;7744;52.172;10.668;2023-07-31T10:32:30;2.30;;;2.10;;
15285;SDS011;7744;52.172;10.668;2023-07-31T10:34:56;3.00;;;2.08;;
15285;SDS011;7744;52.172;10.668;2023-07-31T10:37:27;2.28;;;1.85;;
15285;SDS011;7744;52.172;10.668;2023-07-31T10:39:58;5.00;;;2.30;;
15285;SDS011;7744;52.172;10.668;2023-07-31T10:42:29;3.42;;;2.47;;
15285;SDS011;7744;52.172;10.668;2023-07-31T10:44:57;2.47;;;2.10;;
15285;SDS011;7744;52.172;10.668;2023-07-31T10:47:46;3.30;;;2.17;;
15285;SDS011;7744;52.172;10.668;2023-07-31T10:52:48;2.55;;;2.20;;
15285;SDS011;7744;52.172;10.668;2023-07-31T10:55:16;3.00;;;2.55;;
15285;SDS011;7744;52.172;10.668;2023-07-31T10:57:53;2.53;;;2.15;;
15285;SDS011;7744;52.172;10.668;2023-07-31T11:00:26;3.25;;;2.42;;
15285;SDS011;7744;52.172;10.668;2023-07-31T11:03:00;4.60;;;2.58;;
15285;SDS011;7744;52.172;10.668;2023-07-31T11:05:43;3.33;;;2.45;;
15285;SDS011;7744;52.172;10.668;2023-07-31T11:08:12;3.65;;;2.50;;
15285;SDS011;7744;52.172;10.668;2023-07-31T11:10:37;4.35;;;2.47;;
15285;SDS011;7744;52.172;10.668;2023-07-31T11:13:06;4.40;;;2.20;;
15285;SDS011;7744;52.172;10.668;2023-07-31T11:15:32;3.65;;;2.08;;
15285;SDS011;7744;52.172;10.668;2023-07-31T11:17:57;3.53;;;2.30;;
15285;SDS011;7744;52.172;10.668;2023-07-31T11:20:31;2.30;;;2.10;;
15285;SDS011;7744;52.172;10.668;2023-07-31T11:23:03;3.65;;;2.58;;
15285;SDS011;7744;52.172;10.668;2023-07-31T11:25:33;3.70;;;2.85;;
15285;SDS011;7744;52.172;10.668;2023-07-31T11:28:06;2.83;;;2.30;;
15285;SDS011;7744;52.172;10.668;2023-07-31T11:30:34;3.83;;;2.30;;
15285;SDS011;7744;52.172;10.668;2023-07-31T11:33:04;2.92;;;2.17;;
15285;SDS011;7744;52.172;10.668;2023-07-31T11:35:34;3.55;;;2.65;;
15285;SDS011;7744;52.172;10.668;2023-07-31T11:38:06;3.30;;;2.50;;
15285;SDS011;7744;52.172;10.668;2023-07-31T11:40:40;4.20;;;2.50;;
15285;SDS011;7744;52.172;10.668;2023-07-31T11:43:07;2.92;;;2.30;;
15285;SDS011;7744;52.172;10.668;2023-07-31T11:45:33;3.80;;;2.05;;
15285;SDS011;7744;52.172;10.668;2023-07-31T11:48:00;2.90;;;2.33;;
15285;SDS011;7744;52.172;10.668;2023-07-31T11:50:26;4.13;;;2.30;;
15285;SDS011;7744;52.172;10.668;2023-07-31T11:52:59;5.78;;;2.20;;
15285;SDS011;7744;52.172;10.668;2023-07-31T11:55:27;3.70;;;1.88;;
15285;SDS011;7744;52.172;10.668;2023-07-31T11:57:55;4.60;;;2.85;;
15285;SDS011;7744;52.172;10.668;2023-07-31T12:00:22;2.85;;;2.45;;
15285;SDS011;7744;52.172;10.668;2023-07-31T12:02:49;2.30;;;2.10;;
15285;SDS011;7744;52.172;10.668;2023-07-31T12:05:16;3.00;;;2.05;;
15285;SDS011;7744;52.172;10.668;2023-07-31T12:07:52;3.83;;;2.20;;
15285;SDS011;7744;52.172;10.668;2023-07-31T12:10:22;2.60;;;2.10;;
15285;SDS011;7744;52.172;10.668;2023-07-31T12:12:55;2.53;;;2.00;;
15285;SDS011;7744;52.172;10.668;2023-07-31T12:18:10;3.95;;;2.20;;
15285;SDS011;7744;52.172;10.668;2023-07-31T12:20:40;2.40;;;2.20;;
15285;SDS011;7744;52.172;10.668;2023-07-31T12:23:12;3.22;;;2.10;;
15285;SDS011;7744;52.172;10.668;2023-07-31T12:25:39;2.22;;;1.85;;
15285;SDS011;7744;52.172;10.668;2023-07-31T12:28:05;4.15;;;2.00;;
15285;SDS011;7744;52.172;10.668;2023-07-31T12:30:33;2.83;;;2.10;;
15285;SDS011;7744;52.172;10.668;2023-07-31T12:33:06;1.80;;;1.60;;
15285;SDS011;7744;52.172;10.668;2023-07-31T12:35:48;3.13;;;2.05;;
15285;SDS011;7744;52.172;10.668;2023-07-31T12:38:14;2.58;;;2.08;;
15285;SDS011;7744;52.172;10.668;2023-07-31T12:40:40;3.35;;;1.95;;
15285;SDS011;7744;52.172;10.668;2023-07-31T12:43:07;3.25;;;1.73;;
15285;SDS011;7744;52.172;10.668;2023-07-31T12:45:33;2.45;;;1.90;;
15285;SDS011;7744;52.172;10.668;2023-07-31T12:47:59;1.80;;;1.70;;
15285;SDS011;7744;52.172;10.668;2023-07-31T12:50:26;3.05;;;1.95;;
15285;SDS011;7744;52.172;10.668;2023-07-31T12:52:55;3.05;;;1.70;;
15285;SDS011;7744;52.172;10.668;2023-07-31T12:55:22;1.80;;;1.50;;
15285;SDS011;7744;52.172;10.668;2023-07-31T12:57:48;2.33;;;1.58;;
15285;SDS011;7744;52.172;10.668;2023-07-31T13:00:14;2.53;;;1.90;;
15285;SDS011;7744;52.172;10.668;2023-07-31T13:02:40;2.13;;;1.63;;
15285;SDS011;7744;52.172;10.668;2023-07-31T13:05:06;4.50;;;1.63;;
15285;SDS011;7744;52.172;10.668;2023-07-31T13:07:31;2.47;;;1.50;;
15285;SDS011;7744;52.172;10.668;2023-07-31T13:09:57;2.47;;;1.55;;
15285;SDS011;7744;52.172;10.668;2023-07-31T13:12:23;1.85;;;1.55;;
15285;SDS011;7744;52.172;10.668;2023-07-31T13:14:48;3.35;;;1.88;;
15285;SDS011;7744;52.172;10.668;2023-07-31T13:17:14;2.15;;;1.40;;
15285;SDS011;7744;52.172;10.668;2023-07-31T13:19:40;3.58;;;1.70;;
15285;SDS011;7744;52.172;10.668;2023-07-31T13:22:06;1.73;;;1.58;;
15285;SDS011;7744;52.172;10.668;2023-07-31T13:24:32;1.70;;;1.60;;
15285;SDS011;7744;52.172;10.668;2023-07-31T13:26:58;2.95;;;1.70;;
15285;SDS011;7744;52.172;10.668;2023-07-31T13:29:23;1.75;;;1.50;;
15285;SDS011;7744;52.172;10.668;2023-07-31T13:31:50;4.00;;;1.67;;
15285;SDS011;7744;52.172;10.668;2023-07-31T13:34:18;2.08;;;1.63;;
15285;SDS011;7744;52.172;10.668;2023-07-31T13:36:44;3.15;;;1.70;;
15285;SDS011;7744;52.172;10.668;2023-07-31T13:39:10;2.30;;;1.33;;
15285;SDS011;7744;52.172;10.668;2023-07-31T13:41:36;2.28;;;1.60;;
15285;SDS011;7744;52.172;10.668;2023-07-31T13:44:02;2.30;;;1.48;;
15285;SDS011;7744;52.172;10.668;2023-07-31T13:46:28;2.17;;;1.63;;
15285;SDS011;7744;52.172;10.668;2023-07-31T13:48:55;2.30;;;1.65;;
15285;SDS011;7744;52.172;10.668;2023-07-31T13:51:21;3.15;;;1.77;;
15285;SDS011;7744;52.172;10.668;2023-07-31T13:53:47;1.70;;;1.40;;
15285;SDS011;7744;52.172;10.668;2023-07-31T13:56:13;2.22;;;1.65;;
15285;SDS011;7744;52.172;10.668;2023-07-31T13:58:39;1.45;;;1.20;;
15285;SDS011;7744;52.172;10.668;2023-07-31T14:01:04;1.30;;;1.08;;
15285;SDS011;7744;52.172;10.668;2023-07-31T14:03:30;1.40;;;0.90;;
15285;SDS011;7744;52.172;10.668;2023-07-31T14:05:56;2.85;;;0.85;;
15285;SDS011;7744;52.172;10.668;2023-07-31T14:08:22;1.33;;;0.95;;
15285;SDS011;7744;52.172;10.668;2023-07-31T14:10:48;2.55;;;1.20;;
15285;SDS011;7744;52.172;10.668;2023-07-31T14:13:14;1.52;;;1.20;;
15285;SDS011;7744;52.172;10.668;2023-07-31T14:15:41;1.17;;;1.08;;
15285;SDS011;7744;52.172;10.668;2023-07-31T14:18:08;1.33;;;1.23;;
15285;SDS011;7744;52.172;10.668;2023-07-31T14:20:33;2.35;;;1.20;;
15285;SDS011;7744;52.172;10.668;2023-07-31T14:22:59;1.33;;;1.05;;
15285;SDS011;7744;52.172;10.668;2023-07-31T14:25:25;2.78;;;1.27;;
15285;SDS011;7744;52.172;10.668;2023-07-31T14:27:51;2.42;;;1.02;;
15285;SDS011;7744;52.172;10.668;2023-07-31T14:30:17;1.45;;;1.20;;
15285;SDS011;7744;52.172;10.668;2023-07-31T14:32:43;1.35;;;1.00;;
15285;SDS011;7744;52.172;10.668;2023-07-31T14:35:09;1.13;;;1.02;;
15285;SDS011;7744;52.172;10.668;2023-07-31T14:37:44;0.80;;;0.80;;
15285;SDS011;7744;52.172;10.668;2023-07-31T14:40:11;1.25;;;1.05;;
15285;SDS011;7744;52.172;10.668;2023-07-31T14:42:37;1.50;;;0.98;;
15285;SDS011;7744;52.172;10.668;2023-07-31T14:45:04;2.08;;;0.98;;
15285;SDS011;7744;52.172;10.668;2023-07-31T14:47:31;1.55;;;1.35;;
15285;SDS011;7744;52.172;10.668;2023-07-31T14:49:57;1.70;;;1.20;;
15285;SDS011;7744;52.172;10.668;2023-07-31T14:52:30;2.70;;;1.33;;
15285;SDS011;7744;52.172;10.668;2023-07-31T14:55:00;2.20;;;1.30;;